Time;durP1;ratioP1;P1;durP2;ratioP2;P2;SDS_P1;SDS_P2;PMS_P1;PMS_P2;Temp;Humidity;BMP_temperature;BMP_pressure;BME280_temperature;BME280_humidity;BME280_pressure;Samples;Min_cycle;Max_cycle;Signal;HPM_P1;HPM_P2
2021/11/14 00:01:17;;;;;;;0.00;0.00;;;;;;;15.14;67.02;101626.66;7364629;19;20485;-55
2021/11/14 00:03:43;;;;;;;0.00;0.00;;;;;;;15.20;66.79;101631.75;7361340;19;20039;-55
2021/11/14 00:06:09;;;;;;;0.00;0.00;;;;;;;15.20;67.25;101632.59;7362599;19;20427;-57
2021/11/14 00:08:36;;;;;;;0.10;0.10;;;;;;;15.20;67.46;101622.09;7364432;19;20025;-54
2021/11/14 00:11:09;;;;;;;0.00;0.00;;;;;;;15.24;66.79;101618.47;7358983;19;20874;-56
2021/11/14 00:13:38;;;;;;;0.00;0.00;;;;;;;15.22;67.54;101614.19;7358747;19;20101;-56
2021/11/14 00:16:07;;;;;;;0.00;0.00;;;;;;;15.23;67.55;101613.25;7362610;19;20011;-55
2021/11/14 00:18:33;;;;;;;0.00;0.00;;;;;;;15.22;67.69;101625.56;7358293;19;20053;-56
2021/11/14 00:20:58;;;;;;;0.00;0.00;;;;;;;15.21;67.33;101634.38;7362634;19;20007;-55
2021/11/14 00:23:24;;;;;;;0.00;0.00;;;;;;;15.23;67.10;101632.53;7358347;19;20014;-57
2021/11/14 00:25:50;;;;;;;0.00;0.00;;;;;;;15.24;67.56;101634.25;7359511;19;20002;-55
2021/11/14 00:28:15;;;;;;;0.00;0.00;;;;;;;15.24;67.77;101631.63;7360095;19;20370;-57
2021/11/14 00:30:41;;;;;;;0.00;0.00;;;;;;;15.25;67.71;101620.19;7360832;19;20046;-56
2021/11/14 00:33:08;;;;;;;0.00;0.00;;;;;;;15.15;67.55;101608.19;7359407;19;20074;-55
2021/11/14 00:35:34;;;;;;;0.00;0.00;;;;;;;15.12;67.40;101610.94;7362033;19;20026;-57
2021/11/14 00:37:59;;;;;;;0.00;0.00;;;;;;;15.27;67.15;101641.22;7361158;19;20098;-55
2021/11/14 00:40:29;;;;;;;0.00;0.00;;;;;;;15.27;67.34;101651.75;7360229;19;20017;-57
2021/11/14 00:42:56;;;;;;;0.00;0.00;;;;;;;15.27;67.51;101652.59;7362079;19;20015;-55
2021/11/14 00:45:22;;;;;;;0.00;0.00;;;;;;;15.26;67.46;101657.94;7359086;19;20039;-54
2021/11/14 00:47:47;;;;;;;0.00;0.00;;;;;;;15.25;67.39;101658.81;7361970;19;20742;-57
2021/11/14 00:50:14;;;;;;;0.00;0.00;;;;;;;15.26;67.48;101658.78;7362252;19;20107;-57
2021/11/14 00:52:41;;;;;;;0.00;0.00;;;;;;;15.26;67.67;101658.78;7364314;19;20015;-55
2021/11/14 00:55:08;;;;;;;0.00;0.00;;;;;;;15.27;67.49;101662.28;7367766;19;20006;-57
2021/11/14 00:57:34;;;;;;;0.00;0.00;;;;;;;15.24;67.39;101660.56;7371462;19;20048;-55
2021/11/14 00:59:59;;;;;;;0.00;0.00;;;;;;;15.25;67.42;101654.41;7366258;19;20026;-55
2021/11/14 01:02:25;;;;;;;0.03;0.03;;;;;;;15.25;67.54;101657.03;7366781;19;20018;-57
2021/11/14 01:04:50;;;;;;;0.00;0.00;;;;;;;15.22;67.48;101646.59;7368498;19;20512;-57
2021/11/14 01:07:15;;;;;;;0.00;0.00;;;;;;;15.24;67.87;101644.78;7365144;19;20016;-56
2021/11/14 01:09:41;;;;;;;0.00;0.00;;;;;;;15.25;68.15;101653.53;7370581;19;20102;-56
2021/11/14 01:12:07;;;;;;;0.00;0.00;;;;;;;15.12;67.98;101634.59;7366435;19;20663;-57
2021/11/14 01:14:32;;;;;;;0.00;0.00;;;;;;;15.24;67.45;101650.06;7369407;19;20014;-55
2021/11/14 01:16:58;;;;;;;0.00;0.00;;;;;;;15.21;67.18;101655.41;7368142;19;20011;-56
2021/11/14 01:19:23;;;;;;;0.00;0.00;;;;;;;15.26;67.44;101660.56;7362870;19;20086;-55
2021/11/14 01:21:49;;;;;;;0.00;0.00;;;;;;;15.26;66.93;101652.66;7369412;19;20542;-56
2021/11/14 01:24:16;;;;;;;0.00;0.00;;;;;;;15.29;67.18;101656.06;7367677;19;20085;-56
2021/11/14 01:26:42;;;;;;;;;;;;;;;15.32;63.82;101648.09;7367996;19;20011;-57
2021/11/14 01:29:07;;;;;;;0.00;0.00;;;;;;;15.27;67.22;101652.59;7368268;19;19915;-56
2021/11/14 01:31:33;;;;;;;0.00;0.00;;;;;;;15.13;67.59;101628.44;7365953;19;20074;-56
2021/11/14 01:33:58;;;;;;;0.00;0.00;;;;;;;15.24;67.93;101655.31;7362648;19;20018;-57
2021/11/14 01:36:24;;;;;;;0.00;0.00;;;;;;;15.24;67.67;101657.09;7366500;19;20025;-57
2021/11/14 01:38:49;;;;;;;0.08;0.08;;;;;;;15.24;67.73;101649.19;7367516;19;20014;-56
2021/11/14 01:41:15;;;;;;;0.10;0.10;;;;;;;15.18;67.47;101644.97;7364841;19;20006;-56
2021/11/14 01:43:49;;;;;;;0.10;0.10;;;;;;;15.27;67.26;101644.72;7364033;19;20042;-56
2021/11/14 01:46:16;;;;;;;0.00;0.00;;;;;;;15.24;67.88;101644.78;7367433;19;20493;-56
2021/11/14 01:48:42;;;;;;;0.05;0.05;;;;;;;15.25;67.83;101641.25;7367634;19;20052;-55
2021/11/14 01:51:08;;;;;;;0.00;0.00;;;;;;;15.25;67.84;101635.97;7366430;19;20022;-56
2021/11/14 01:53:35;;;;;;;0.00;0.00;;;;;;;15.25;67.85;101635.97;7367626;19;20495;-57
2021/11/14 01:56:04;;;;;;;0.00;0.00;;;;;;;15.27;67.92;101644.72;7365814;19;20010;-56
2021/11/14 01:58:30;;;;;;;0.00;0.00;;;;;;;15.27;67.91;101639.47;7361841;19;20010;-55
2021/11/14 02:01:12;;;;;;;0.00;0.00;;;;;;;15.22;66.72;101625.56;7368598;19;20014;-57
2021/11/14 02:03:41;;;;;;;0.00;0.00;;;;;;;15.31;67.39;101641.09;7366258;19;20015;-56
2021/11/14 02:06:07;;;;;;;0.00;0.00;;;;;;;15.28;67.96;101641.16;7363715;19;20096;-56
2021/11/14 02:08:37;;;;;;;0.00;0.00;;;;;;;15.28;67.87;101649.06;7365127;19;20631;-57
2021/11/14 02:11:03;;;;;;;0.00;0.00;;;;;;;15.28;68.12;101646.44;7364555;19;20910;-55
2021/11/14 02:13:30;;;;;;;0.00;0.00;;;;;;;15.28;68.35;101656.09;7356309;19;20106;-55
2021/11/14 02:15:56;;;;;;;0.00;0.00;;;;;;;15.28;68.14;101641.16;7370031;19;20009;-56
2021/11/14 02:18:21;;;;;;;0.00;0.00;;;;;;;15.29;67.66;101642.91;7367833;19;20038;-57
2021/11/14 02:20:48;;;;;;;0.00;0.00;;;;;;;15.30;67.70;101638.50;7368740;19;20794;-56
2021/11/14 02:23:17;;;;;;;0.03;0.03;;;;;;;15.24;67.57;101628.13;7368920;19;20023;-55
2021/11/14 02:25:48;;;;;;;0.00;0.00;;;;;;;15.24;67.67;101642.16;7369496;19;20081;-56
2021/11/14 02:28:15;;;;;;;0.00;0.00;;;;;;;15.28;68.01;101651.69;7363202;19;20007;-56
2021/11/14 02:30:41;;;;;;;0.00;0.00;;;;;;;15.28;67.69;101650.84;7367844;19;20022;-56
2021/11/14 02:33:07;;;;;;;0.00;0.00;;;;;;;15.27;67.49;101644.72;7367996;19;20481;-53
2021/11/14 02:35:34;;;;;;;0.05;0.05;;;;;;;15.29;68.26;101650.78;7367427;19;20018;-57
2021/11/14 02:38:00;;;;;;;0.00;0.00;;;;;;;15.29;68.01;101656.06;7370395;19;20018;-57
2021/11/14 02:40:26;;;;;;;0.00;0.00;;;;;;;15.26;68.24;101658.78;7369347;19;20103;-56
2021/11/14 02:42:52;;;;;;;0.00;0.00;;;;;;;15.17;68.41;101637.97;7369966;19;20010;-56
2021/11/14 02:45:22;;;;;;;0.00;0.00;;;;;;;15.32;67.85;101658.63;7367719;19;20010;-55
2021/11/14 02:47:49;;;;;;;0.00;0.00;;;;;;;15.30;68.17;101659.53;7367649;19;20006;-55
2021/11/14 02:50:15;;;;;;;0.00;0.00;;;;;;;15.30;68.07;101657.78;7370841;19;20010;-55
2021/11/14 02:52:40;;;;;;;0.00;0.00;;;;;;;15.30;68.17;101660.41;7366468;19;20014;-57
2021/11/14 02:55:10;;;;;;;0.00;0.00;;;;;;;15.32;67.77;101663.00;7370647;19;20498;-57
2021/11/14 02:57:35;;;;;;;0.00;0.00;;;;;;;15.29;67.78;101661.31;7364058;19;20010;-56
2021/11/14 03:00:04;;;;;;;0.00;0.00;;;;;;;15.29;68.36;101658.69;7362151;19;20017;-57
2021/11/14 03:02:29;;;;;;;0.00;0.00;;;;;;;15.29;67.93;101663.94;7367058;19;20018;-56
2021/11/14 03:04:54;;;;;;;0.05;0.05;;;;;;;15.30;68.19;101670.06;7368775;19;20014;-56
2021/11/14 03:07:20;;;;;;;0.00;0.00;;;;;;;15.29;68.08;101666.56;7366207;19;20050;-56
2021/11/14 03:09:45;;;;;;;0.00;0.00;;;;;;;15.26;68.30;101655.28;7363124;19;20010;-56
2021/11/14 03:12:11;;;;;;;0.00;0.00;;;;;;;15.30;68.12;101670.94;7365940;19;20002;-56
2021/11/14 03:14:36;;;;;;;0.00;0.00;;;;;;;15.29;68.03;101669.22;7364538;19;20010;-56
2021/11/14 03:17:02;;;;;;;0.00;0.00;;;;;;;15.30;68.03;101670.94;7354443;19;20026;-56
2021/11/14 03:19:28;;;;;;;0.10;0.10;;;;;;;15.30;68.48;101670.94;7367619;19;20007;-57
2021/11/14 03:21:54;;;;;;;0.00;0.00;;;;;;;15.30;68.17;101664.81;7363085;19;20098;-56
2021/11/14 03:24:19;;;;;;;0.00;0.00;;;;;;;15.30;68.54;101670.94;7363720;19;20033;-57
2021/11/14 03:26:45;;;;;;;0.00;0.00;;;;;;;15.30;68.30;101668.28;7366385;19;20029;-53
2021/11/14 03:29:10;;;;;;;0.00;0.00;;;;;;;15.30;68.53;101667.44;7366347;19;20387;-56
2021/11/14 03:31:36;;;;;;;0.00;0.00;;;;;;;15.31;67.92;101670.06;7367237;19;20085;-57
2021/11/14 03:34:02;;;;;;;0.10;0.10;;;;;;;15.29;68.25;101666.56;7360852;19;20039;-56
2021/11/14 03:36:28;;;;;;;0.00;0.00;;;;;;;15.30;68.14;101665.66;7367813;19;20049;-56
2021/11/14 03:38:57;;;;;;;0.00;0.00;;;;;;;15.31;67.54;101667.41;7368622;19;20010;-56
2021/11/14 03:41:26;;;;;;;0.00;0.00;;;;;;;15.30;67.84;101655.16;7362314;19;20003;-56
2021/11/14 03:43:53;;;;;;;0.00;0.00;;;;;;;15.26;68.49;101650.91;7362542;19;20010;-55
2021/11/14 03:46:20;;;;;;;0.00;0.00;;;;;;;15.26;68.50;101661.41;7363090;19;20011;-55
2021/11/14 03:48:47;;;;;;;0.00;0.00;;;;;;;15.25;68.42;101657.03;7367994;19;20046;-56
2021/11/14 03:51:14;;;;;;;0.00;0.00;;;;;;;15.23;67.77;101658.00;7363482;19;20018;-59
2021/11/14 03:53:40;;;;;;;0.00;0.00;;;;;;;15.21;67.38;101655.41;7365971;19;20006;-59
2021/11/14 03:56:06;;;;;;;0.00;0.00;;;;;;;15.18;67.46;101655.47;7357971;19;20021;-56
2021/11/14 03:58:32;;;;;;;0.00;0.00;;;;;;;15.13;67.51;101649.47;7361013;19;20094;-57
2021/11/14 04:01:04;;;;;;;0.00;0.00;;;;;;;15.14;67.06;101651.19;7367296;19;20030;-57
2021/11/14 04:03:30;;;;;;;0.00;0.00;;;;;;;15.09;68.11;101650.47;7364055;19;20031;-58
2021/11/14 04:05:56;;;;;;;0.00;0.00;;;;;;;15.07;68.02;101657.53;7360517;19;20002;-56
2021/11/14 04:08:23;;;;;;;0.00;0.00;;;;;;;15.06;68.17;101661.09;7362987;19;20090;-55
2021/11/14 04:10:49;;;;;;;;;;;;;;;15.08;64.92;101659.25;7361217;19;20113;-55
2021/11/14 04:13:16;;;;;;;0.00;0.00;;;;;;;15.00;67.04;101661.22;7364528;19;19918;-56
2021/11/14 04:15:42;;;;;;;0.00;0.00;;;;;;;14.96;67.08;101667.47;7365215;19;20454;-56
2021/11/14 04:18:08;;;;;;;0.00;0.00;;;;;;;14.92;67.26;101671.09;7360079;19;20555;-55
2021/11/14 04:20:36;;;;;;;0.00;0.00;;;;;;;14.90;67.81;101676.41;7361572;19;20018;-56
2021/11/14 04:23:01;;;;;;;0.00;0.00;;;;;;;14.84;68.34;101676.53;7365220;19;20011;-58
2021/11/14 04:25:27;;;;;;;0.00;0.00;;;;;;;14.82;68.30;101672.22;7364026;19;20018;-58
2021/11/14 04:27:54;;;;;;;0.00;0.00;;;;;;;14.78;68.54;101674.91;7366520;19;20014;-58
2021/11/14 04:30:20;;;;;;;0.10;0.10;;;;;;;14.76;68.33;101671.47;7363889;19;20458;-59
2021/11/14 04:32:45;;;;;;;0.00;0.00;;;;;;;14.76;68.33;101675.88;7366381;19;20010;-59
2021/11/14 04:35:11;;;;;;;0.00;0.00;;;;;;;14.73;68.66;101679.41;7360782;19;20019;-58
2021/11/14 04:37:37;;;;;;;0.00;0.00;;;;;;;14.72;68.41;101682.09;7364013;19;20481;-59
2021/11/14 04:40:05;;;;;;;0.00;0.00;;;;;;;14.72;68.47;101684.72;7368267;19;20705;-58
2021/11/14 04:42:31;;;;;;;0.00;0.00;;;;;;;14.69;68.92;101693.53;7363771;19;20022;-58
2021/11/14 04:44:57;;;;;;;0.00;0.00;;;;;;;14.70;68.70;101691.75;7365728;19;20042;-58
2021/11/14 04:47:23;;;;;;;0.00;0.00;;;;;;;14.70;68.88;101694.38;7366008;19;20018;-59
2021/11/14 04:49:48;;;;;;;0.00;0.00;;;;;;;14.69;68.44;101690.91;7365121;19;20481;-58
2021/11/14 04:52:13;;;;;;;0.00;0.00;;;;;;;14.61;69.27;101673.59;7367204;19;20034;-57
2021/11/14 04:54:39;;;;;;;0.00;0.00;;;;;;;14.71;69.18;101688.25;7366710;19;20014;-58
2021/11/14 04:57:04;;;;;;;0.00;0.00;;;;;;;14.72;68.97;101697.88;7364723;19;20377;-54
2021/11/14 04:59:30;;;;;;;0.00;0.00;;;;;;;14.74;69.16;101696.91;7367382;19;20022;-58
2021/11/14 05:01:56;;;;;;;0.00;0.00;;;;;;;14.76;68.90;101696.91;7367794;19;20046;-57
2021/11/14 05:04:21;;;;;;;0.00;0.00;;;;;;;14.76;69.21;101700.38;7367025;19;20028;-59
2021/11/14 05:06:46;;;;;;;0.00;0.00;;;;;;;14.74;68.66;101681.13;7364101;19;20485;-57
2021/11/14 05:09:12;;;;;;;0.00;0.00;;;;;;;14.78;68.70;101693.31;7364846;19;20454;-59
2021/11/14 05:11:37;;;;;;;0.00;0.00;;;;;;;14.78;68.90;101703.84;7366590;19;20073;-59
2021/11/14 05:14:03;;;;;;;0.00;0.00;;;;;;;14.75;69.06;101703.94;7362198;19;20006;-55
2021/11/14 05:16:29;;;;;;;0.00;0.00;;;;;;;14.76;68.76;101704.78;7364775;19;20045;-57
2021/11/14 05:18:55;;;;;;;0.00;0.00;;;;;;;14.74;68.45;101707.44;7364895;19;20010;-58
2021/11/14 05:21:20;;;;;;;0.00;0.00;;;;;;;14.72;68.48;101703.13;7360556;19;20011;-56
2021/11/14 05:23:46;;;;;;;0.00;0.00;;;;;;;14.67;68.81;101700.59;7365987;19;20011;-59
2021/11/14 05:26:12;;;;;;;0.00;0.00;;;;;;;14.67;68.91;101711.13;7365589;19;20011;-58
2021/11/14 05:28:38;;;;;;;0.00;0.00;;;;;;;14.66;69.10;101708.53;7364623;19;20476;-55
2021/11/14 05:31:04;;;;;;;0.00;0.00;;;;;;;14.64;68.70;101710.31;7364099;19;20010;-56
2021/11/14 05:33:29;;;;;;;0.00;0.00;;;;;;;14.62;68.24;101710.38;7362621;19;20354;-53
2021/11/14 05:35:55;;;;;;;0.00;0.00;;;;;;;14.60;68.44;101714.81;7363507;19;20006;-58
2021/11/14 05:38:20;;;;;;;0.00;0.00;;;;;;;14.58;68.58;101705.22;7364229;19;20010;-58
2021/11/14 05:40:46;;;;;;;0.00;0.00;;;;;;;14.55;68.57;101706.16;7369595;19;20022;-58
2021/11/14 05:43:12;;;;;;;0.00;0.00;;;;;;;14.51;68.46;101709.75;7368944;19;20346;-58
2021/11/14 05:45:38;;;;;;;0.00;0.00;;;;;;;14.45;68.57;101705.47;7371489;19;24617;-58
2021/11/14 05:48:04;;;;;;;0.10;0.10;;;;;;;14.32;67.72;101698.75;7372509;19;20046;-56
2021/11/14 05:50:29;;;;;;;0.00;0.00;;;;;;;14.34;67.94;101712.69;7366633;19;20031;-58
2021/11/14 05:52:55;;;;;;;0.00;0.00;;;;;;;14.28;68.49;101708.44;7370116;19;20358;-58
2021/11/14 05:55:21;;;;;;;0.00;0.00;;;;;;;14.20;68.39;101704.28;7367555;19;20014;-58
2021/11/14 05:58:01;;;;;;;0.00;0.00;;;;;;;14.15;68.52;101701.75;7370469;19;20006;-58
2021/11/14 06:00:39;;;;;;;0.00;0.00;;;;;;;14.07;68.74;101703.66;7368290;19;21253;-57
2021/11/14 06:03:09;;;;;;;0.00;0.00;;;;;;;14.02;68.81;101716.03;7373114;19;20014;-57
2021/11/14 06:05:38;;;;;;;0.00;0.00;;;;;;;13.96;68.98;101724.03;7370903;19;20744;-57
2021/11/14 06:08:05;;;;;;;0.00;0.00;;;;;;;13.91;69.44;101724.13;7370513;19;20026;-59
2021/11/14 06:10:32;;;;;;;0.00;0.00;;;;;;;13.88;69.30;101723.31;7372999;19;20030;-55
2021/11/14 06:12:58;;;;;;;0.00;0.00;;;;;;;13.82;68.71;101712.94;7370323;19;20022;-55
2021/11/14 06:15:23;;;;;;;0.00;0.00;;;;;;;13.69;68.60;101707.94;7371104;19;20018;-57
2021/11/14 06:17:49;;;;;;;0.00;0.00;;;;;;;13.71;69.06;101716.66;7370861;19;20016;-55
2021/11/14 06:20:15;;;;;;;0.00;0.00;;;;;;;13.67;69.26;101714.97;7368631;19;20033;-55
2021/11/14 06:22:41;;;;;;;0.00;0.00;;;;;;;13.64;68.62;101725.56;7369821;19;20979;-57
2021/11/14 06:25:07;;;;;;;0.00;0.00;;;;;;;13.59;68.63;101735.28;7372767;19;20037;-57
2021/11/14 06:27:34;;;;;;;0.00;0.00;;;;;;;13.53;69.30;101727.47;7370882;19;20010;-57
2021/11/14 06:29:59;;;;;;;0.00;0.00;;;;;;;13.54;68.95;101738.88;7371753;19;20023;-57
2021/11/14 06:32:25;;;;;;;0.00;0.00;;;;;;;13.51;68.99;101734.53;7363280;19;20033;-56
2021/11/14 06:34:50;;;;;;;0.00;0.00;;;;;;;13.46;68.82;101731.13;7370406;19;20097;-58
2021/11/14 06:37:16;;;;;;;0.00;0.00;;;;;;;13.33;68.82;101714.75;7371834;19;20010;-57
2021/11/14 06:39:41;;;;;;;0.00;0.00;;;;;;;13.41;69.25;101743.47;7367627;19;20011;-56
2021/11/14 06:42:07;;;;;;;0.00;0.00;;;;;;;13.38;69.23;101740.88;7366119;19;20037;-57
2021/11/14 06:44:33;;;;;;;0.00;0.00;;;;;;;13.34;69.10;101741.84;7372394;19;21829;-57
2021/11/14 06:46:59;;;;;;;0.00;0.00;;;;;;;13.30;69.30;101755.91;7362820;19;20027;-57
2021/11/14 06:49:24;;;;;;;0.00;0.00;;;;;;;13.24;69.44;101752.50;7370764;19;20014;-57
2021/11/14 06:51:50;;;;;;;0.00;0.00;;;;;;;13.23;69.60;101760.41;7366073;19;20038;-57
2021/11/14 06:54:15;;;;;;;0.00;0.00;;;;;;;13.20;69.78;101758.66;7369128;19;20106;-58
2021/11/14 06:56:41;;;;;;;0.00;0.00;;;;;;;13.17;69.52;101756.06;7370574;19;20011;-57
2021/11/14 06:59:06;;;;;;;0.00;0.00;;;;;;;13.13;70.17;101749.16;7368634;19;20007;-58
2021/11/14 07:01:31;;;;;;;0.00;0.00;;;;;;;13.17;70.29;101756.06;7367878;19;20018;-58
2021/11/14 07:03:57;;;;;;;0.00;0.00;;;;;;;13.17;70.06;101761.31;7366950;19;20025;-57
2021/11/14 07:06:22;;;;;;;0.00;0.00;;;;;;;13.16;69.73;101767.44;7368803;19;20022;-57
2021/11/14 07:08:48;;;;;;;0.00;0.00;;;;;;;13.16;69.72;101771.84;7368024;19;20010;-57
2021/11/14 07:11:13;;;;;;;0.00;0.00;;;;;;;12.99;69.84;101745.88;7364677;19;20034;-58
2021/11/14 07:13:39;;;;;;;0.00;0.00;;;;;;;13.02;70.06;101760.69;7369771;19;20013;-57
2021/11/14 07:16:06;;;;;;;0.00;0.00;;;;;;;13.11;70.16;101771.03;7369730;19;20033;-57
2021/11/14 07:18:31;;;;;;;0.00;0.00;;;;;;;13.10;70.19;101775.41;7369493;19;20006;-58
2021/11/14 07:20:56;;;;;;;0.00;0.00;;;;;;;13.08;70.18;101771.97;7368166;19;20025;-58
2021/11/14 07:23:22;;;;;;;0.00;0.00;;;;;;;13.10;70.08;101775.41;7366858;19;20047;-57
2021/11/14 07:25:47;;;;;;;0.10;0.10;;;;;;;13.11;70.25;101771.91;7370329;19;20010;-57
2021/11/14 07:28:13;;;;;;;0.00;0.00;;;;;;;13.10;69.69;101775.41;7363760;19;20023;-56
2021/11/14 07:30:38;;;;;;;0.00;0.00;;;;;;;13.11;70.03;101769.28;7367967;19;20012;-58
2021/11/14 07:33:04;;;;;;;0.00;0.00;;;;;;;13.15;70.32;101773.59;7367708;19;20025;-57
2021/11/14 07:35:30;;;;;;;0.00;0.00;;;;;;;13.15;70.30;101768.34;7369837;19;20015;-58
2021/11/14 07:37:55;;;;;;;0.00;0.00;;;;;;;13.16;70.40;101770.06;7364241;19;20010;-58
2021/11/14 07:40:23;;;;;;;0.00;0.00;;;;;;;13.19;70.38;101767.41;7367602;19;20903;-57
2021/11/14 07:42:51;;;;;;;0.00;0.00;;;;;;;13.12;70.82;101747.41;7369226;19;20079;-57
2021/11/14 07:45:17;;;;;;;;;;;;;;;13.31;67.78;101773.38;7367564;19;20014;-57
2021/11/14 07:47:43;;;;;;;0.08;0.08;;;;;;;13.32;70.39;101775.09;7367985;19;19922;-55
2021/11/14 07:50:10;;;;;;;0.00;0.00;;;;;;;13.35;70.22;101772.44;7365195;19;20458;-57
2021/11/14 07:52:36;;;;;;;0.00;0.00;;;;;;;13.33;70.55;101771.56;7362945;19;20158;-57
2021/11/14 07:55:02;;;;;;;0.00;0.00;;;;;;;13.34;70.29;101770.72;7365380;19;20078;-57
2021/11/14 07:57:28;;;;;;;0.00;0.00;;;;;;;13.38;70.09;101789.00;7368577;19;20014;-57
2021/11/14 07:59:53;;;;;;;0.00;0.00;;;;;;;13.38;70.52;101785.47;7367609;19;21109;-57
2021/11/14 08:02:19;;;;;;;0.00;0.00;;;;;;;13.38;70.53;101794.25;7358922;19;20018;-57
2021/11/14 08:04:44;;;;;;;0.00;0.00;;;;;;;13.37;70.23;101795.13;7367902;19;20002;-59
2021/11/14 08:07:10;;;;;;;0.00;0.00;;;;;;;13.34;70.03;101799.56;7365827;19;20018;-57
2021/11/14 08:09:36;;;;;;;0.00;0.00;;;;;;;13.33;69.89;101803.06;7359430;19;20108;-57
2021/11/14 08:12:02;;;;;;;0.00;0.00;;;;;;;13.27;70.07;101797.91;7366721;19;20026;-58
2021/11/14 08:14:28;;;;;;;0.00;0.00;;;;;;;13.26;70.17;101814.56;7363485;19;20095;-58
2021/11/14 08:16:53;;;;;;;0.00;0.00;;;;;;;13.23;69.67;101813.72;7357239;19;20010;-58
2021/11/14 08:19:19;;;;;;;0.00;0.00;;;;;;;13.19;69.87;101817.25;7363251;19;20553;-57
2021/11/14 08:21:44;;;;;;;0.00;0.00;;;;;;;13.05;69.80;101800.84;7361768;19;20018;-56
2021/11/14 08:24:10;;;;;;;0.00;0.00;;;;;;;13.13;69.77;101825.22;7366562;19;20009;-58
2021/11/14 08:26:35;;;;;;;0.00;0.00;;;;;;;13.10;69.98;101835.75;7360835;19;20782;-57
2021/11/14 08:29:01;;;;;;;0.00;0.00;;;;;;;13.07;70.20;101827.91;7351464;19;20336;-57
2021/11/14 08:31:26;;;;;;;0.00;0.00;;;;;;;12.99;69.47;101814.06;7355645;19;20042;-57
2021/11/14 08:33:52;;;;;;;0.00;0.00;;;;;;;13.02;69.70;101829.72;7364068;19;20022;-58
2021/11/14 08:36:18;;;;;;;0.00;0.00;;;;;;;13.01;70.09;101832.38;7353110;19;20016;-57
2021/11/14 08:38:44;;;;;;;0.00;0.00;;;;;;;12.98;69.93;101828.06;7354341;19;20014;-57
2021/11/14 08:41:11;;;;;;;0.00;0.00;;;;;;;12.98;69.91;101833.31;7355469;19;21102;-57
2021/11/14 08:43:38;;;;;;;0.00;0.00;;;;;;;12.97;70.35;101831.56;7360103;19;20003;-57
2021/11/14 08:46:04;;;;;;;0.00;0.00;;;;;;;12.98;70.41;101828.06;7366170;19;20773;-57
2021/11/14 08:48:30;;;;;;;0.00;0.00;;;;;;;12.97;70.15;101828.94;7363870;19;20029;-58
2021/11/14 08:50:55;;;;;;;0.00;0.00;;;;;;;13.04;70.70;101833.22;7362963;19;20011;-58
2021/11/14 08:53:22;;;;;;;0.00;0.00;;;;;;;13.02;70.66;101816.63;7365416;19;20086;-57
2021/11/14 08:55:50;;;;;;;0.00;0.00;;;;;;;13.32;71.25;101831.06;7363486;19;20006;-57
2021/11/14 08:58:16;;;;;;;0.00;0.00;;;;;;;13.56;70.71;101826.31;7362796;19;20095;-58
2021/11/14 09:00:41;;;;;;;0.00;0.00;;;;;;;13.83;70.46;101819.69;7362963;19;20039;-54
2021/11/14 09:03:06;;;;;;;0.00;0.00;;;;;;;14.07;69.93;101818.38;7365397;19;20022;-57
2021/11/14 09:05:32;;;;;;;0.00;0.00;;;;;;;14.23;68.92;101831.16;7363088;19;20109;-58
2021/11/14 09:08:00;;;;;;;0.00;0.00;;;;;;;14.34;68.93;101833.56;7364913;19;20006;-58
2021/11/14 09:10:27;;;;;;;0.00;0.00;;;;;;;14.41;68.39;101834.34;7362249;19;20010;-58
2021/11/14 09:12:53;;;;;;;0.00;0.00;;;;;;;14.43;68.74;101832.53;7361903;19;20030;-57
2021/11/14 09:15:20;;;;;;;0.00;0.00;;;;;;;14.45;68.60;101830.75;7368627;19;20013;-57
2021/11/14 09:17:46;;;;;;;0.00;0.00;;;;;;;14.50;68.81;101831.56;7367321;19;20648;-57
2021/11/14 09:20:12;;;;;;;0.10;0.10;;;;;;;14.52;68.73;101835.88;7371765;19;20745;-57
2021/11/14 09:22:38;;;;;;;0.00;0.00;;;;;;;14.53;68.59;101813.06;7370212;19;20002;-57
2021/11/14 09:25:06;;;;;;;0.10;0.10;;;;;;;14.69;69.11;101832.88;7364914;19;20006;-58
2021/11/14 09:27:32;;;;;;;0.00;0.00;;;;;;;14.76;68.56;101831.84;7363576;19;20015;-57
2021/11/14 09:29:57;;;;;;;0.00;0.00;;;;;;;14.84;68.87;101823.78;7362868;19;20017;-56
2021/11/14 09:32:23;;;;;;;0.00;0.00;;;;;;;14.91;68.66;101829.78;7359812;19;20142;-58
2021/11/14 09:34:48;;;;;;;0.00;0.00;;;;;;;14.97;68.69;101819.13;7359744;19;20015;-58
2021/11/14 09:37:14;;;;;;;0.00;0.00;;;;;;;15.01;68.57;101826.91;7360471;19;20010;-58
2021/11/14 09:39:40;;;;;;;0.00;0.00;;;;;;;15.08;68.66;101822.38;7360793;19;20478;-58
2021/11/14 09:42:06;;;;;;;0.00;0.00;;;;;;;15.13;68.12;101820.50;7361728;19;20011;-58
2021/11/14 09:44:32;;;;;;;0.00;0.00;;;;;;;15.17;68.30;101822.16;7364688;19;20011;-59
2021/11/14 09:47:01;;;;;;;0.00;0.00;;;;;;;15.20;68.29;101816.78;7360170;19;20032;-58
2021/11/14 09:49:30;;;;;;;0.00;0.00;;;;;;;15.20;68.11;101816.78;7360571;19;20006;-58
2021/11/14 09:51:57;;;;;;;0.00;0.00;;;;;;;15.23;68.53;101822.00;7359663;19;20014;-58
2021/11/14 09:54:25;;;;;;;0.00;0.00;;;;;;;15.27;68.32;101826.28;7361037;19;20941;-58
2021/11/14 09:56:51;;;;;;;;;;;;;;;15.35;66.14;101830.50;7362463;19;20044;-56
2021/11/14 09:59:16;;;;;;;0.00;0.00;;;;;;;15.30;67.94;101823.56;7360200;19;20235;-56
2021/11/14 10:01:44;;;;;;;0.00;0.00;;;;;;;15.36;68.17;101832.22;7365526;19;20480;-57
2021/11/14 10:04:09;;;;;;;0.00;0.00;;;;;;;15.31;68.37;101824.47;7367963;19;20090;-57
2021/11/14 10:06:35;;;;;;;0.00;0.00;;;;;;;15.42;68.46;101843.47;7360310;19;20089;-57
2021/11/14 10:09:03;;;;;;;0.10;0.10;;;;;;;15.32;68.25;101820.91;7350658;19;20010;-58
2021/11/14 10:11:41;;;;;;;0.00;0.00;;;;;;;15.55;67.86;101849.28;7355894;19;20022;-58
2021/11/14 10:14:07;;;;;;;0.03;0.03;;;;;;;15.57;68.07;101852.78;7358747;19;20839;-58
2021/11/14 10:16:35;;;;;;;0.00;0.00;;;;;;;15.62;68.33;101850.88;7359346;19;20036;-58
2021/11/14 10:19:03;;;;;;;;;;;;;;;15.78;66.03;101862.78;7360631;19;20020;-58
2021/11/14 10:21:31;;;;;;;0.00;0.00;;;;;;;15.79;68.04;101858.38;7356913;19;20355;-57
2021/11/14 10:24:01;;;;;;;0.00;0.00;;;;;;;15.87;67.96;101851.16;7360484;19;20039;-58
2021/11/14 10:26:28;;;;;;;0.00;0.00;;;;;;;15.90;67.81;101853.69;7365841;19;20014;-58
2021/11/14 10:29:01;;;;;;;0.00;0.00;;;;;;;15.99;68.07;101863.13;7360533;19;20028;-56
2021/11/14 10:31:27;;;;;;;0.00;0.00;;;;;;;16.04;68.04;101858.59;7356608;19;20670;-57
2021/11/14 10:33:53;;;;;;;0.10;0.10;;;;;;;16.12;68.05;101855.75;7362714;19;20038;-58
2021/11/14 10:36:21;;;;;;;0.00;0.00;;;;;;;16.19;68.02;101852.06;7365471;19;20007;-57
2021/11/14 10:38:47;;;;;;;0.10;0.10;;;;;;;16.26;67.96;101857.09;7364389;19;20419;-57
2021/11/14 10:41:14;;;;;;;0.10;0.10;;;;;;;16.37;68.06;101858.56;7366357;19;20586;-58
2021/11/14 10:43:42;;;;;;;0.00;0.00;;;;;;;16.45;67.27;101853.94;7359858;19;20027;-58
2021/11/14 10:46:17;;;;;;;0.00;0.00;;;;;;;16.57;66.80;101856.22;7365875;19;20010;-57
2021/11/14 10:48:43;;;;;;;0.00;0.00;;;;;;;16.61;67.30;101860.50;7360985;19;20085;-58
2021/11/14 10:51:11;;;;;;;0.00;0.00;;;;;;;16.68;67.34;101856.78;7365011;19;20494;-58
2021/11/14 10:53:38;;;;;;;0.00;0.00;;;;;;;16.76;67.26;101853.94;7365645;19;20027;-59
2021/11/14 10:56:11;;;;;;;0.00;0.00;;;;;;;16.83;66.83;101863.41;7364655;19;20346;-58
2021/11/14 10:58:37;;;;;;;0.00;0.00;;;;;;;16.86;67.06;101856.25;7360368;19;20042;-58
2021/11/14 11:01:08;;;;;;;0.10;0.10;;;;;;;16.95;66.92;101856.88;7359671;19;20478;-58
2021/11/14 11:03:40;;;;;;;0.03;0.03;;;;;;;17.01;66.75;101859.34;7361626;19;20069;-58
2021/11/14 11:06:08;;;;;;;0.00;0.00;;;;;;;17.05;66.60;101860.97;7357060;19;20026;-57
2021/11/14 11:08:36;;;;;;;0.00;0.00;;;;;;;17.08;66.73;101863.50;7360327;19;20771;-56
2021/11/14 11:11:06;;;;;;;0.00;0.00;;;;;;;17.11;66.13;101856.34;7358135;19;20027;-58
2021/11/14 11:13:46;;;;;;;0.00;0.00;;;;;;;17.16;66.31;101864.13;7358409;19;20015;-58
2021/11/14 11:16:14;;;;;;;0.00;0.00;;;;;;;17.14;66.36;101865.97;7358448;19;20066;-58
2021/11/14 11:18:45;;;;;;;0.00;0.00;;;;;;;17.05;66.30;101846.00;7355901;19;20006;-58
2021/11/14 11:21:13;;;;;;;0.00;0.00;;;;;;;17.17;66.18;101870.28;7356587;19;20010;-58
2021/11/14 11:23:45;;;;;;;0.00;0.00;;;;;;;17.13;66.25;101872.13;7358769;19;20010;-58